createdAt,value
2022-12-27T00:04:07.897Z,7
2022-12-27T00:07:50.251Z,8
2022-12-27T00:10:18.497Z,10
2022-12-27T00:12:30.325Z,8
2022-12-27T00:16:49.804Z,14
2022-12-27T00:19:55.060Z,10
2022-12-27T00:22:23.955Z,10
2022-12-27T00:25:28.612Z,11
2022-12-27T00:28:33.949Z,38
2022-12-27T00:31:39.290Z,72
2022-12-27T00:35:21.898Z,68
2022-12-27T00:38:26.906Z,10
2022-12-27T00:43:23.407Z,132
2022-12-27T00:48:19.906Z,54
2022-12-27T00:50:48.137Z,53
2022-12-27T00:53:53.467Z,92
2022-12-27T00:56:21.715Z,43
2022-12-27T00:58:49.941Z,40
2022-12-27T01:01:55.692Z,38
2022-12-27T01:05:00.584Z,57
2022-12-27T01:07:28.950Z,14
2022-12-27T01:10:34.118Z,17
2022-12-27T01:15:22.527Z,10
2022-12-27T01:19:41.851Z,11
2022-12-27T01:22:47.189Z,18
2022-12-27T01:25:15.410Z,13
2022-12-27T01:32:03.212Z,10
2022-12-27T01:36:22.533Z,8
2022-12-27T01:40:04.998Z,14
2022-12-27T01:43:47.313Z,134
2022-12-27T01:47:29.661Z,16
2022-12-27T01:52:26.143Z,13
2022-12-27T01:58:37.305Z,12
2022-12-27T02:01:05.099Z,12
2022-12-27T02:04:10.457Z,17
2022-12-27T02:08:29.759Z,14
2022-12-27T02:10:58.161Z,11
2022-12-27T02:13:09.898Z,11
2022-12-27T02:15:38.116Z,12
2022-12-27T02:19:20.470Z,9
2022-12-27T02:23:40.204Z,10
2022-12-27T02:26:08.153Z,10
2022-12-27T02:29:50.785Z,15
2022-12-27T02:32:18.777Z,11
2022-12-27T02:35:24.472Z,10
2022-12-27T02:37:52.336Z,12
2022-12-27T02:41:34.784Z,18
2022-12-27T02:56:24.191Z,11
2022-12-27T03:07:36.740Z,10
2022-12-27T03:10:03.690Z,11
2022-12-27T03:13:09.050Z,10
2022-12-27T03:16:51.333Z,9
2022-12-27T03:20:33.688Z,11
2022-12-27T03:23:39.116Z,11
2022-12-27T03:27:21.397Z,14
2022-12-27T03:31:03.805Z,9
2022-12-27T03:34:09.173Z,14
2022-12-27T03:37:51.401Z,10
2022-12-27T03:40:19.679Z,11
2022-12-27T03:43:24.957Z,11
2022-12-27T03:46:22.176Z,12
2022-12-27T03:49:27.392Z,10
2022-12-27T03:52:32.695Z,11
2022-12-27T03:56:15.220Z,13
2022-12-27T03:59:20.402Z,10
2022-12-27T04:01:48.714Z,14
2022-12-27T04:04:53.957Z,11
2022-12-27T04:07:22.228Z,9
2022-12-27T04:09:50.422Z,12
2022-12-27T04:12:18.712Z,12
2022-12-27T04:14:46.962Z,11
2022-12-27T04:17:15.198Z,11
2022-12-27T04:19:43.581Z,11
2022-12-27T04:23:25.801Z,11
2022-12-27T04:26:31.131Z,11
2022-12-27T04:29:36.516Z,12
2022-12-27T04:33:18.818Z,9
2022-12-27T04:36:24.102Z,31
2022-12-27T04:38:52.379Z,9
2022-12-27T04:41:20.598Z,11
2022-12-27T04:43:48.867Z,12
2022-12-27T04:46:17.172Z,12
2022-12-27T04:48:45.557Z,12
2022-12-27T04:51:13.648Z,14
2022-12-27T04:53:41.848Z,12
2022-12-27T04:57:24.174Z,13
2022-12-27T04:59:52.559Z,12
2022-12-27T05:02:12.605Z,12
2022-12-27T05:04:40.841Z,10
2022-12-27T05:08:23.337Z,11
2022-12-27T05:11:28.498Z,12
2022-12-27T05:15:47.893Z,11
2022-12-27T05:18:16.108Z,22
2022-12-27T05:20:44.431Z,13
2022-12-27T05:23:12.655Z,12
2022-12-27T05:26:55.041Z,12
2022-12-27T05:29:23.672Z,11
2022-12-27T05:34:19.687Z,11
2022-12-27T05:38:39.307Z,17
2022-12-27T05:41:07.563Z,11
2022-12-27T05:47:55.078Z,14
2022-12-27T05:50:23.666Z,14
2022-12-27T05:52:51.581Z,12
2022-12-27T05:56:25.759Z,13
2022-12-27T06:01:22.279Z,19
2022-12-27T06:04:27.567Z,16
2022-12-27T06:07:32.939Z,15
2022-12-27T06:12:29.336Z,14
2022-12-27T06:14:57.594Z,17
2022-12-27T06:17:25.988Z,12
2022-12-27T06:19:56.952Z,14
2022-12-27T06:22:22.356Z,17
2022-12-27T06:25:27.625Z,16
2022-12-27T06:28:32.982Z,17
2022-12-27T06:32:15.321Z,20
2022-12-27T06:34:43.610Z,14
2022-12-27T06:37:11.809Z,17
2022-12-27T06:40:54.389Z,14
2022-12-27T06:43:22.453Z,18
2022-12-27T06:47:41.907Z,20
2022-12-27T06:51:24.362Z,20
2022-12-27T07:04:22.657Z,18
2022-12-27T07:06:50.874Z,17
2022-12-27T07:09:19.403Z,21
2022-12-27T07:11:47.318Z,21
2022-12-27T07:14:52.759Z,22
2022-12-27T07:17:57.921Z,21
2022-12-27T07:21:40.270Z,19
2022-12-27T07:26:36.767Z,20
2022-12-27T07:31:25.121Z,22
2022-12-27T07:36:21.563Z,23
2022-12-27T07:38:49.821Z,26
2022-12-27T07:43:09.367Z,21
2022-12-27T07:46:51.617Z,20
2022-12-27T07:49:19.876Z,20
2022-12-27T07:51:48.107Z,21
2022-12-27T07:54:17.028Z,20
2022-12-27T07:56:44.641Z,21
2022-12-27T07:59:12.871Z,22
2022-12-27T08:04:09.694Z,18
2022-12-27T08:08:28.794Z,21
2022-12-27T08:13:25.299Z,20
2022-12-27T08:18:21.766Z,17
2022-12-27T08:21:27.111Z,18
2022-12-27T08:24:32.384Z,22
2022-12-27T08:29:20.688Z,23
2022-12-27T08:33:40.098Z,20
2022-12-27T08:40:27.800Z,22
2022-12-27T08:42:56.231Z,18
2022-12-27T08:46:01.620Z,17
2022-12-27T08:50:20.793Z,21
2022-12-27T08:53:26.111Z,18
2022-12-27T08:56:31.498Z,18
2022-12-27T09:00:50.828Z,22
2022-12-27T09:03:19.225Z,17
2022-12-27T09:05:47.359Z,14
2022-12-27T09:08:15.760Z,16
2022-12-27T09:10:43.832Z,19
2022-12-27T09:14:26.261Z,18
2022-12-27T09:17:31.720Z,20
2022-12-27T09:20:36.833Z,20
2022-12-27T09:25:33.461Z,18
2022-12-27T09:28:34.529Z,17
2022-12-27T09:33:31.025Z,16
2022-12-27T09:36:36.328Z,18
2022-12-27T09:40:55.774Z,14
2022-12-27T09:43:27.628Z,13
2022-12-27T09:45:52.245Z,14
2022-12-27T09:48:20.515Z,15
2022-12-27T09:50:48.744Z,16
2022-12-27T09:54:31.179Z,15
2022-12-27T09:57:36.417Z,14
2022-12-27T10:04:34.642Z,16
2022-12-27T10:06:52.472Z,14
2022-12-27T10:09:21.349Z,15
2022-12-27T10:11:48.845Z,13
2022-12-27T10:14:17.162Z,17
2022-12-27T10:17:22.506Z,13
2022-12-27T10:19:50.758Z,11
2022-12-27T10:22:18.911Z,14
2022-12-27T10:24:47.189Z,12
2022-12-27T10:27:15.849Z,15
2022-12-27T11:14:41.487Z,13
2022-12-27T11:18:23.887Z,15
2022-12-27T11:20:53.134Z,13
2022-12-27T11:44:45.272Z,15
2022-12-27T11:51:04.314Z,17
2022-12-27T12:26:37.740Z,14
2022-12-27T12:30:28.280Z,16
2022-12-27T12:36:52.229Z,14
2022-12-27T12:50:30.803Z,18
2022-12-27T12:54:21.377Z,12
2022-12-27T13:06:59.146Z,10
2022-12-27T13:31:33.731Z,12
2022-12-27T13:35:24.406Z,11
2022-12-27T13:41:34.945Z,9
2022-12-27T13:44:03.122Z,11
2022-12-27T13:46:42.558Z,13
2022-12-27T14:16:35.268Z,10
2022-12-27T14:19:03.523Z,11
2022-12-27T14:21:31.619Z,10
2022-12-27T14:24:00.113Z,14
2022-12-27T14:26:28.135Z,10
2022-12-27T14:28:59.853Z,12
2022-12-27T14:31:24.811Z,9
2022-12-27T14:51:19.960Z,14
2022-12-27T14:58:52.223Z,10
2022-12-27T15:08:53.317Z,12
2022-12-27T16:00:38.869Z,32
2022-12-27T16:04:29.275Z,30
2022-12-27T16:07:05.786Z,35
2022-12-27T16:09:34.129Z,39
2022-12-27T16:15:02.674Z,33
2022-12-27T16:19:27.054Z,40
2022-12-27T16:21:55.508Z,30
2022-12-27T16:55:33.452Z,47
2022-12-27T16:59:23.990Z,39
2022-12-27T17:04:36.840Z,47
2022-12-27T17:08:27.400Z,43
2022-12-27T17:10:55.623Z,47
2022-12-27T17:13:23.903Z,44
2022-12-27T17:15:52.457Z,33
2022-12-27T17:18:20.787Z,29
2022-12-27T17:20:40.501Z,38
2022-12-27T17:24:22.903Z,41
2022-12-27T17:53:04.461Z,23
2022-12-27T17:55:32.611Z,24
2022-12-27T17:58:00.914Z,25
2022-12-27T18:00:29.359Z,26
2022-12-27T18:02:57.515Z,22
2022-12-27T18:05:27.361Z,21
2022-12-27T18:08:02.162Z,20
2022-12-27T18:10:38.773Z,23
2022-12-27T18:14:29.288Z,23
2022-12-27T18:16:57.472Z,22
2022-12-27T18:19:34.032Z,21
2022-12-27T18:24:32.592Z,21
2022-12-27T18:28:22.030Z,25
2022-12-27T18:30:57.529Z,25
2022-12-27T18:33:25.824Z,25
2022-12-27T18:36:09.038Z,25
2022-12-27T18:38:22.769Z,36
2022-12-27T18:40:53.112Z,29
2022-12-27T18:43:18.882Z,28
2022-12-27T18:45:47.533Z,31
2022-12-27T19:11:52.423Z,49
2022-12-27T19:14:28.643Z,47
2022-12-27T19:18:19.326Z,47
2022-12-27T19:20:47.406Z,44
2022-12-27T19:25:35.772Z,43
2022-12-27T19:28:04.137Z,42
2022-12-27T19:30:40.684Z,42
2022-12-27T20:06:12.112Z,43
2022-12-27T20:09:31.396Z,42
2022-12-27T20:14:27.903Z,48
2022-12-27T20:19:24.470Z,43
2022-12-27T20:23:15.043Z,49
2022-12-27T20:49:03.728Z,43
2022-12-27T20:51:40.092Z,44
2022-12-27T20:55:22.479Z,48
2022-12-27T20:57:50.763Z,44
2022-12-27T21:00:19.059Z,50
2022-12-27T21:02:47.458Z,49
2022-12-27T21:31:20.690Z,52
2022-12-27T21:33:57.119Z,48
2022-12-27T21:37:47.633Z,55
2022-12-27T21:41:30.114Z,52
2022-12-27T21:45:28.865Z,57
2022-12-27T21:50:17.114Z,49
2022-12-27T21:52:53.617Z,48
2022-12-27T21:55:30.053Z,44
2022-12-27T21:57:58.317Z,46
2022-12-27T22:00:34.802Z,47
2022-12-27T22:03:03.298Z,53
2022-12-27T22:07:59.628Z,45
2022-12-27T22:10:36.065Z,54
2022-12-27T22:13:12.491Z,50
2022-12-27T22:15:40.807Z,49
2022-12-27T22:19:23.240Z,48
2022-12-27T22:21:59.638Z,54
2022-12-27T22:24:27.885Z,52
2022-12-27T22:26:56.144Z,49
2022-12-27T22:29:24.522Z,48
2022-12-27T22:32:00.879Z,49
2022-12-27T22:34:37.329Z,54
2022-12-27T22:38:19.780Z,54
2022-12-27T22:40:48.140Z,44
2022-12-27T22:44:47.872Z,50
2022-12-27T22:50:49.265Z,50
2022-12-27T22:55:03.559Z,48
2022-12-27T22:58:30.439Z,48
2022-12-27T23:03:43.642Z,47
2022-12-27T23:08:56.335Z,47
2022-12-27T23:11:24.568Z,41
2022-12-27T23:13:52.851Z,40
2022-12-27T23:16:21.166Z,42
2022-12-27T23:18:49.350Z,46
2022-12-27T23:22:31.819Z,38
2022-12-27T23:26:22.429Z,36
2022-12-27T23:41:36.587Z,38
2022-12-27T23:45:27.209Z,42
